sensor_id;sensor_type;location;lat;lon;timestamp;P1;durP1;ratioP1;P2;durP2;ratioP2
53666;SDS011;39568;51.026;5.468;2022-07-29T00:00:25;6.07;;;2.85;;
53666;SDS011;39568;51.026;5.468;2022-07-29T00:02:52;9.70;;;3.55;;
53666;SDS011;39568;51.026;5.468;2022-07-29T00:05:18;7.25;;;2.67;;
53666;SDS011;39568;51.026;5.468;2022-07-29T00:07:49;16.00;;;3.73;;
53666;SDS011;39568;51.026;5.468;2022-07-29T00:10:19;6.82;;;2.25;;
53666;SDS011;39568;51.026;5.468;2022-07-29T00:12:46;8.90;;;3.42;;
53666;SDS011;39568;51.026;5.468;2022-07-29T00:15:15;9.30;;;2.67;;
53666;SDS011;39568;51.026;5.468;2022-07-29T00:17:42;9.80;;;3.50;;
53666;SDS011;39568;51.026;5.468;2022-07-29T00:20:09;8.82;;;2.85;;
53666;SDS011;39568;51.026;5.468;2022-07-29T00:22:36;6.32;;;2.83;;
53666;SDS011;39568;51.026;5.468;2022-07-29T00:25:06;3.70;;;2.47;;
53666;SDS011;39568;51.026;5.468;2022-07-29T00:27:34;6.03;;;2.83;;
53666;SDS011;39568;51.026;5.468;2022-07-29T00:30:06;5.10;;;2.90;;
53666;SDS011;39568;51.026;5.468;2022-07-29T00:32:36;12.93;;;3.22;;
53666;SDS011;39568;51.026;5.468;2022-07-29T00:35:03;10.57;;;2.75;;
53666;SDS011;39568;51.026;5.468;2022-07-29T00:37:48;13.63;;;3.50;;
53666;SDS011;39568;51.026;5.468;2022-07-29T00:40:14;9.38;;;2.75;;
53666;SDS011;39568;51.026;5.468;2022-07-29T00:42:45;8.33;;;2.93;;
53666;SDS011;39568;51.026;5.468;2022-07-29T00:45:13;8.68;;;2.38;;
53666;SDS011;39568;51.026;5.468;2022-07-29T00:47:42;11.25;;;2.63;;
53666;SDS011;39568;51.026;5.468;2022-07-29T00:50:12;5.57;;;3.00;;
53666;SDS011;39568;51.026;5.468;2022-07-29T00:52:40;16.40;;;2.50;;
53666;SDS011;39568;51.026;5.468;2022-07-29T00:55:08;9.60;;;2.90;;
53666;SDS011;39568;51.026;5.468;2022-07-29T00:57:37;8.30;;;2.40;;
53666;SDS011;39568;51.026;5.468;2022-07-29T01:00:07;4.93;;;2.17;;
53666;SDS011;39568;51.026;5.468;2022-07-29T01:02:36;7.13;;;2.95;;
53666;SDS011;39568;51.026;5.468;2022-07-29T01:05:05;4.57;;;2.20;;
53666;SDS011;39568;51.026;5.468;2022-07-29T01:07:33;4.43;;;2.55;;
53666;SDS011;39568;51.026;5.468;2022-07-29T01:10:01;9.77;;;2.80;;
53666;SDS011;39568;51.026;5.468;2022-07-29T01:12:30;5.63;;;2.75;;
53666;SDS011;39568;51.026;5.468;2022-07-29T01:14:59;2.53;;;2.17;;
53666;SDS011;39568;51.026;5.468;2022-07-29T01:17:28;11.90;;;2.78;;
53666;SDS011;39568;51.026;5.468;2022-07-29T01:20:02;3.95;;;2.65;;
53666;SDS011;39568;51.026;5.468;2022-07-29T01:22:46;5.43;;;3.03;;
53666;SDS011;39568;51.026;5.468;2022-07-29T01:28:44;4.90;;;2.58;;
53666;SDS011;39568;51.026;5.468;2022-07-29T01:31:20;4.38;;;2.47;;
53666;SDS011;39568;51.026;5.468;2022-07-29T01:33:53;4.75;;;2.58;;
53666;SDS011;39568;51.026;5.468;2022-07-29T01:36:27;7.93;;;2.83;;
53666;SDS011;39568;51.026;5.468;2022-07-29T01:39:00;7.30;;;2.60;;
53666;SDS011;39568;51.026;5.468;2022-07-29T01:41:31;6.55;;;2.50;;
53666;SDS011;39568;51.026;5.468;2022-07-29T01:44:04;8.38;;;3.25;;
53666;SDS011;39568;51.026;5.468;2022-07-29T01:46:40;3.95;;;2.95;;
53666;SDS011;39568;51.026;5.468;2022-07-29T01:49:15;5.43;;;3.20;;
53666;SDS011;39568;51.026;5.468;2022-07-29T01:51:46;2.63;;;2.42;;
53666;SDS011;39568;51.026;5.468;2022-07-29T01:54:20;3.80;;;2.38;;
53666;SDS011;39568;51.026;5.468;2022-07-29T01:56:53;4.95;;;2.67;;
53666;SDS011;39568;51.026;5.468;2022-07-29T01:59:25;9.00;;;2.78;;
53666;SDS011;39568;51.026;5.468;2022-07-29T02:01:57;5.20;;;2.95;;
53666;SDS011;39568;51.026;5.468;2022-07-29T02:04:25;4.30;;;2.97;;
53666;SDS011;39568;51.026;5.468;2022-07-29T02:06:54;3.92;;;2.50;;
53666;SDS011;39568;51.026;5.468;2022-07-29T02:09:26;12.77;;;3.38;;
53666;SDS011;39568;51.026;5.468;2022-07-29T02:11:53;9.80;;;2.85;;
53666;SDS011;39568;51.026;5.468;2022-07-29T02:14:22;10.88;;;3.47;;
53666;SDS011;39568;51.026;5.468;2022-07-29T02:16:55;15.90;;;3.55;;
53666;SDS011;39568;51.026;5.468;2022-07-29T02:19:23;13.07;;;3.28;;
53666;SDS011;39568;51.026;5.468;2022-07-29T02:21:53;9.60;;;3.47;;
53666;SDS011;39568;51.026;5.468;2022-07-29T02:24:22;12.48;;;3.90;;
53666;SDS011;39568;51.026;5.468;2022-07-29T02:26:52;15.55;;;3.50;;
53666;SDS011;39568;51.026;5.468;2022-07-29T02:29:22;10.50;;;3.70;;
53666;SDS011;39568;51.026;5.468;2022-07-29T02:31:51;8.38;;;3.92;;
53666;SDS011;39568;51.026;5.468;2022-07-29T02:34:22;8.57;;;4.18;;
53666;SDS011;39568;51.026;5.468;2022-07-29T02:36:50;8.25;;;4.40;;
53666;SDS011;39568;51.026;5.468;2022-07-29T02:39:21;9.30;;;4.43;;
53666;SDS011;39568;51.026;5.468;2022-07-29T02:41:52;10.73;;;4.43;;
53666;SDS011;39568;51.026;5.468;2022-07-29T02:44:23;7.07;;;3.80;;
53666;SDS011;39568;51.026;5.468;2022-07-29T02:47:02;5.65;;;3.70;;
53666;SDS011;39568;51.026;5.468;2022-07-29T02:49:38;9.38;;;3.70;;
53666;SDS011;39568;51.026;5.468;2022-07-29T02:52:12;16.15;;;4.60;;
53666;SDS011;39568;51.026;5.468;2022-07-29T02:54:45;4.90;;;3.42;;
53666;SDS011;39568;51.026;5.468;2022-07-29T02:57:20;5.65;;;3.42;;
53666;SDS011;39568;51.026;5.468;2022-07-29T02:59:53;4.22;;;3.83;;
53666;SDS011;39568;51.026;5.468;2022-07-29T03:02:25;7.68;;;3.47;;
53666;SDS011;39568;51.026;5.468;2022-07-29T03:04:56;9.15;;;4.45;;
53666;SDS011;39568;51.026;5.468;2022-07-29T03:07:24;6.63;;;3.05;;
53666;SDS011;39568;51.026;5.468;2022-07-29T03:09:51;3.78;;;2.78;;
53666;SDS011;39568;51.026;5.468;2022-07-29T03:12:25;9.18;;;3.15;;
53666;SDS011;39568;51.026;5.468;2022-07-29T03:14:59;5.38;;;3.63;;
53666;SDS011;39568;51.026;5.468;2022-07-29T03:17:29;7.68;;;3.67;;
53666;SDS011;39568;51.026;5.468;2022-07-29T03:20:01;8.85;;;3.45;;
53666;SDS011;39568;51.026;5.468;2022-07-29T03:22:29;8.23;;;3.33;;
53666;SDS011;39568;51.026;5.468;2022-07-29T03:25:03;15.35;;;4.25;;
53666;SDS011;39568;51.026;5.468;2022-07-29T03:27:35;7.70;;;3.70;;
53666;SDS011;39568;51.026;5.468;2022-07-29T03:30:02;8.05;;;3.47;;
53666;SDS011;39568;51.026;5.468;2022-07-29T03:32:29;13.10;;;3.58;;
53666;SDS011;39568;51.026;5.468;2022-07-29T03:35:04;6.93;;;3.30;;
53666;SDS011;39568;51.026;5.468;2022-07-29T03:40:02;6.13;;;3.17;;
53666;SDS011;39568;51.026;5.468;2022-07-29T03:42:32;6.93;;;3.35;;
53666;SDS011;39568;51.026;5.468;2022-07-29T03:45:05;9.93;;;3.55;;
53666;SDS011;39568;51.026;5.468;2022-07-29T03:47:35;4.32;;;3.47;;
53666;SDS011;39568;51.026;5.468;2022-07-29T03:50:08;4.55;;;3.50;;
53666;SDS011;39568;51.026;5.468;2022-07-29T03:55:05;3.75;;;3.45;;
53666;SDS011;39568;51.026;5.468;2022-07-29T03:57:34;4.07;;;3.05;;
53666;SDS011;39568;51.026;5.468;2022-07-29T04:00:04;8.00;;;3.47;;
53666;SDS011;39568;51.026;5.468;2022-07-29T04:02:32;3.55;;;3.28;;
53666;SDS011;39568;51.026;5.468;2022-07-29T04:04:59;8.35;;;3.92;;
53666;SDS011;39568;51.026;5.468;2022-07-29T04:07:29;12.68;;;3.42;;
53666;SDS011;39568;51.026;5.468;2022-07-29T04:09:56;7.07;;;4.07;;
53666;SDS011;39568;51.026;5.468;2022-07-29T04:12:22;4.15;;;3.70;;
53666;SDS011;39568;51.026;5.468;2022-07-29T04:14:52;7.15;;;4.20;;
53666;SDS011;39568;51.026;5.468;2022-07-29T04:17:19;7.72;;;4.15;;
53666;SDS011;39568;51.026;5.468;2022-07-29T04:19:46;8.50;;;4.68;;
53666;SDS011;39568;51.026;5.468;2022-07-29T04:22:13;6.78;;;4.25;;
53666;SDS011;39568;51.026;5.468;2022-07-29T04:24:41;6.63;;;3.88;;
53666;SDS011;39568;51.026;5.468;2022-07-29T04:27:08;10.82;;;4.65;;
53666;SDS011;39568;51.026;5.468;2022-07-29T04:29:36;10.60;;;4.80;;
53666;SDS011;39568;51.026;5.468;2022-07-29T04:32:03;5.45;;;4.75;;
53666;SDS011;39568;51.026;5.468;2022-07-29T04:34:30;8.90;;;4.20;;
53666;SDS011;39568;51.026;5.468;2022-07-29T04:36:57;11.57;;;4.78;;
53666;SDS011;39568;51.026;5.468;2022-07-29T04:39:24;6.88;;;4.60;;
53666;SDS011;39568;51.026;5.468;2022-07-29T04:41:55;9.55;;;4.28;;
53666;SDS011;39568;51.026;5.468;2022-07-29T04:44:21;4.47;;;4.07;;
53666;SDS011;39568;51.026;5.468;2022-07-29T04:46:48;9.48;;;4.70;;
53666;SDS011;39568;51.026;5.468;2022-07-29T04:49:14;11.35;;;5.53;;
53666;SDS011;39568;51.026;5.468;2022-07-29T04:51:42;6.15;;;4.85;;
53666;SDS011;39568;51.026;5.468;2022-07-29T04:54:10;9.85;;;4.80;;
53666;SDS011;39568;51.026;5.468;2022-07-29T04:56:36;5.45;;;4.95;;
53666;SDS011;39568;51.026;5.468;2022-07-29T04:59:09;7.88;;;4.60;;
53666;SDS011;39568;51.026;5.468;2022-07-29T05:01:36;5.03;;;4.70;;
53666;SDS011;39568;51.026;5.468;2022-07-29T05:04:03;5.15;;;4.65;;
53666;SDS011;39568;51.026;5.468;2022-07-29T05:06:30;9.68;;;5.05;;
53666;SDS011;39568;51.026;5.468;2022-07-29T05:08:58;9.07;;;5.03;;
53666;SDS011;39568;51.026;5.468;2022-07-29T05:11:24;7.50;;;5.10;;
53666;SDS011;39568;51.026;5.468;2022-07-29T05:13:54;7.22;;;4.72;;
53666;SDS011;39568;51.026;5.468;2022-07-29T05:16:22;8.68;;;5.40;;
53666;SDS011;39568;51.026;5.468;2022-07-29T05:18:50;8.88;;;4.50;;
53666;SDS011;39568;51.026;5.468;2022-07-29T05:21:17;10.18;;;5.32;;
53666;SDS011;39568;51.026;5.468;2022-07-29T05:23:45;7.20;;;5.15;;
53666;SDS011;39568;51.026;5.468;2022-07-29T05:26:12;7.40;;;5.68;;
53666;SDS011;39568;51.026;5.468;2022-07-29T05:28:42;7.00;;;4.97;;
53666;SDS011;39568;51.026;5.468;2022-07-29T05:31:12;9.30;;;5.43;;
53666;SDS011;39568;51.026;5.468;2022-07-29T05:33:41;12.40;;;4.97;;
53666;SDS011;39568;51.026;5.468;2022-07-29T05:36:08;5.82;;;4.82;;
53666;SDS011;39568;51.026;5.468;2022-07-29T05:38:35;7.80;;;4.82;;
53666;SDS011;39568;51.026;5.468;2022-07-29T05:41:02;12.23;;;6.43;;
53666;SDS011;39568;51.026;5.468;2022-07-29T05:43:29;15.63;;;5.65;;
53666;SDS011;39568;51.026;5.468;2022-07-29T05:45:56;15.77;;;5.63;;
53666;SDS011;39568;51.026;5.468;2022-07-29T05:48:24;9.50;;;5.65;;
53666;SDS011;39568;51.026;5.468;2022-07-29T05:50:54;6.70;;;5.00;;
53666;SDS011;39568;51.026;5.468;2022-07-29T05:53:27;6.18;;;5.10;;
53666;SDS011;39568;51.026;5.468;2022-07-29T05:56:02;9.55;;;5.07;;
53666;SDS011;39568;51.026;5.468;2022-07-29T05:58:31;15.67;;;6.33;;
53666;SDS011;39568;51.026;5.468;2022-07-29T06:00:58;15.85;;;5.28;;
53666;SDS011;39568;51.026;5.468;2022-07-29T06:03:25;9.15;;;5.97;;
53666;SDS011;39568;51.026;5.468;2022-07-29T06:05:55;5.15;;;4.65;;
53666;SDS011;39568;51.026;5.468;2022-07-29T06:08:25;5.45;;;4.95;;
53666;SDS011;39568;51.026;5.468;2022-07-29T06:10:58;8.80;;;4.35;;
53666;SDS011;39568;51.026;5.468;2022-07-29T06:13:25;6.45;;;5.82;;
53666;SDS011;39568;51.026;5.468;2022-07-29T06:15:52;9.20;;;5.65;;
53666;SDS011;39568;51.026;5.468;2022-07-29T06:18:20;6.10;;;5.15;;
53666;SDS011;39568;51.026;5.468;2022-07-29T06:20:50;7.60;;;5.20;;
53666;SDS011;39568;51.026;5.468;2022-07-29T06:23:19;9.98;;;5.72;;
53666;SDS011;39568;51.026;5.468;2022-07-29T06:25:48;9.60;;;5.63;;
53666;SDS011;39568;51.026;5.468;2022-07-29T06:28:18;7.40;;;4.47;;
53666;SDS011;39568;51.026;5.468;2022-07-29T06:30:56;5.55;;;5.05;;
53666;SDS011;39568;51.026;5.468;2022-07-29T06:33:25;7.30;;;4.88;;
53666;SDS011;39568;51.026;5.468;2022-07-29T06:35:53;6.70;;;5.07;;
53666;SDS011;39568;51.026;5.468;2022-07-29T06:38:22;5.10;;;4.65;;
53666;SDS011;39568;51.026;5.468;2022-07-29T06:40:50;10.55;;;4.88;;
53666;SDS011;39568;51.026;5.468;2022-07-29T06:43:26;5.90;;;5.32;;
53666;SDS011;39568;51.026;5.468;2022-07-29T06:45:54;15.40;;;6.25;;
53666;SDS011;39568;51.026;5.468;2022-07-29T06:48:21;5.57;;;4.88;;
53666;SDS011;39568;51.026;5.468;2022-07-29T06:50:49;8.38;;;5.03;;
53666;SDS011;39568;51.026;5.468;2022-07-29T06:53:16;6.38;;;4.93;;
53666;SDS011;39568;51.026;5.468;2022-07-29T06:55:44;6.55;;;4.78;;
53666;SDS011;39568;51.026;5.468;2022-07-29T06:58:11;6.75;;;5.57;;
53666;SDS011;39568;51.026;5.468;2022-07-29T07:00:39;12.85;;;4.80;;
53666;SDS011;39568;51.026;5.468;2022-07-29T07:05:36;7.50;;;5.05;;
53666;SDS011;39568;51.026;5.468;2022-07-29T07:08:04;7.50;;;4.32;;
53666;SDS011;39568;51.026;5.468;2022-07-29T07:10:31;8.55;;;4.38;;
53666;SDS011;39568;51.026;5.468;2022-07-29T07:13:00;13.55;;;5.45;;
53666;SDS011;39568;51.026;5.468;2022-07-29T07:17:58;5.93;;;4.47;;
53666;SDS011;39568;51.026;5.468;2022-07-29T07:20:24;7.50;;;4.57;;
53666;SDS011;39568;51.026;5.468;2022-07-29T07:22:55;7.30;;;5.13;;
53666;SDS011;39568;51.026;5.468;2022-07-29T07:25:23;6.75;;;4.35;;
53666;SDS011;39568;51.026;5.468;2022-07-29T07:27:49;5.97;;;3.92;;
53666;SDS011;39568;51.026;5.468;2022-07-29T07:30:21;12.38;;;4.95;;
53666;SDS011;39568;51.026;5.468;2022-07-29T07:32:54;11.13;;;5.10;;
53666;SDS011;39568;51.026;5.468;2022-07-29T07:35:21;6.25;;;4.40;;
53666;SDS011;39568;51.026;5.468;2022-07-29T07:37:52;6.78;;;4.40;;
53666;SDS011;39568;51.026;5.468;2022-07-29T07:40:19;6.90;;;4.40;;
53666;SDS011;39568;51.026;5.468;2022-07-29T07:42:48;6.65;;;4.05;;
53666;SDS011;39568;51.026;5.468;2022-07-29T07:45:21;4.97;;;4.40;;
53666;SDS011;39568;51.026;5.468;2022-07-29T07:47:50;4.35;;;3.72;;
53666;SDS011;39568;51.026;5.468;2022-07-29T07:50:17;5.53;;;4.38;;
53666;SDS011;39568;51.026;5.468;2022-07-29T07:52:47;12.48;;;4.63;;
53666;SDS011;39568;51.026;5.468;2022-07-29T07:55:25;14.40;;;5.20;;
53666;SDS011;39568;51.026;5.468;2022-07-29T07:57:54;8.20;;;4.70;;
53666;SDS011;39568;51.026;5.468;2022-07-29T08:00:23;8.20;;;4.03;;
53666;SDS011;39568;51.026;5.468;2022-07-29T08:02:53;4.57;;;3.75;;
53666;SDS011;39568;51.026;5.468;2022-07-29T08:05:20;7.93;;;4.10;;
53666;SDS011;39568;51.026;5.468;2022-07-29T08:07:48;15.45;;;4.88;;
53666;SDS011;39568;51.026;5.468;2022-07-29T08:10:14;6.47;;;3.90;;
53666;SDS011;39568;51.026;5.468;2022-07-29T08:13:03;9.32;;;4.20;;
53666;SDS011;39568;51.026;5.468;2022-07-29T08:15:44;4.63;;;3.72;;
53666;SDS011;39568;51.026;5.468;2022-07-29T08:18:11;6.07;;;3.33;;
53666;SDS011;39568;51.026;5.468;2022-07-29T08:20:38;6.97;;;4.18;;
53666;SDS011;39568;51.026;5.468;2022-07-29T08:23:06;5.80;;;3.70;;
53666;SDS011;39568;51.026;5.468;2022-07-29T08:25:34;6.80;;;3.85;;
53666;SDS011;39568;51.026;5.468;2022-07-29T08:28:04;5.95;;;4.05;;
53666;SDS011;39568;51.026;5.468;2022-07-29T08:30:31;4.05;;;3.60;;
53666;SDS011;39568;51.026;5.468;2022-07-29T08:32:59;9.13;;;4.35;;
53666;SDS011;39568;51.026;5.468;2022-07-29T08:35:27;3.42;;;3.10;;
53666;SDS011;39568;51.026;5.468;2022-07-29T08:37:55;9.82;;;4.00;;
53666;SDS011;39568;51.026;5.468;2022-07-29T08:40:22;13.23;;;4.18;;
53666;SDS011;39568;51.026;5.468;2022-07-29T08:42:50;8.00;;;3.55;;
53666;SDS011;39568;51.026;5.468;2022-07-29T08:45:17;6.75;;;4.50;;
53666;SDS011;39568;51.026;5.468;2022-07-29T08:47:44;9.45;;;3.95;;
53666;SDS011;39568;51.026;5.468;2022-07-29T08:50:12;4.95;;;3.45;;
53666;SDS011;39568;51.026;5.468;2022-07-29T08:52:40;9.32;;;3.17;;
53666;SDS011;39568;51.026;5.468;2022-07-29T08:55:09;4.30;;;3.88;;
53666;SDS011;39568;51.026;5.468;2022-07-29T08:57:38;3.60;;;3.20;;
53666;SDS011;39568;51.026;5.468;2022-07-29T09:00:08;6.38;;;4.35;;
53666;SDS011;39568;51.026;5.468;2022-07-29T09:02:39;8.15;;;3.17;;
53666;SDS011;39568;51.026;5.468;2022-07-29T09:05:08;4.20;;;3.40;;
53666;SDS011;39568;51.026;5.468;2022-07-29T09:07:36;7.15;;;3.47;;
53666;SDS011;39568;51.026;5.468;2022-07-29T09:10:07;8.68;;;3.83;;
53666;SDS011;39568;51.026;5.468;2022-07-29T09:12:35;4.45;;;3.90;;
53666;SDS011;39568;51.026;5.468;2022-07-29T09:15:02;4.68;;;4.05;;
53666;SDS011;39568;51.026;5.468;2022-07-29T09:20:16;5.38;;;3.60;;
53666;SDS011;39568;51.026;5.468;2022-07-29T09:22:45;5.13;;;3.97;;
53666;SDS011;39568;51.026;5.468;2022-07-29T09:25:15;6.40;;;3.97;;
53666;SDS011;39568;51.026;5.468;2022-07-29T09:28:05;5.00;;;3.90;;
53666;SDS011;39568;51.026;5.468;2022-07-29T09:30:32;4.93;;;3.58;;
53666;SDS011;39568;51.026;5.468;2022-07-29T09:33:02;4.22;;;3.00;;
53666;SDS011;39568;51.026;5.468;2022-07-29T09:35:30;6.30;;;3.92;;
53666;SDS011;39568;51.026;5.468;2022-07-29T09:38:10;6.82;;;3.42;;
53666;SDS011;39568;51.026;5.468;2022-07-29T09:40:47;4.72;;;2.67;;
53666;SDS011;39568;51.026;5.468;2022-07-29T09:43:22;7.10;;;2.53;;
53666;SDS011;39568;51.026;5.468;2022-07-29T09:45:51;4.00;;;1.92;;
53666;SDS011;39568;51.026;5.468;2022-07-29T09:48:19;6.60;;;2.47;;
53666;SDS011;39568;51.026;5.468;2022-07-29T09:50:48;7.03;;;2.97;;
53666;SDS011;39568;51.026;5.468;2022-07-29T09:56:02;3.20;;;2.20;;
53666;SDS011;39568;51.026;5.468;2022-07-29T09:58:31;2.83;;;2.40;;
53666;SDS011;39568;51.026;5.468;2022-07-29T10:01:00;3.55;;;1.80;;
53666;SDS011;39568;51.026;5.468;2022-07-29T10:03:28;7.03;;;2.22;;
53666;SDS011;39568;51.026;5.468;2022-07-29T10:06:05;5.55;;;1.80;;
53666;SDS011;39568;51.026;5.468;2022-07-29T10:08:37;6.55;;;2.33;;
53666;SDS011;39568;51.026;5.468;2022-07-29T10:11:11;3.72;;;2.50;;
53666;SDS011;39568;51.026;5.468;2022-07-29T10:13:39;2.75;;;2.08;;
53666;SDS011;39568;51.026;5.468;2022-07-29T10:16:08;3.58;;;1.60;;
53666;SDS011;39568;51.026;5.468;2022-07-29T10:18:35;2.63;;;1.65;;
53666;SDS011;39568;51.026;5.468;2022-07-29T10:21:06;9.40;;;2.58;;
53666;SDS011;39568;51.026;5.468;2022-07-29T10:23:35;5.28;;;2.85;;
53666;SDS011;39568;51.026;5.468;2022-07-29T10:26:04;2.13;;;1.92;;
53666;SDS011;39568;51.026;5.468;2022-07-29T10:28:35;4.72;;;1.98;;
53666;SDS011;39568;51.026;5.468;2022-07-29T10:31:18;3.50;;;1.60;;
53666;SDS011;39568;51.026;5.468;2022-07-29T10:33:52;5.45;;;1.73;;
53666;SDS011;39568;51.026;5.468;2022-07-29T10:36:38;8.52;;;2.25;;
53666;SDS011;39568;51.026;5.468;2022-07-29T10:39:17;6.65;;;1.38;;
53666;SDS011;39568;51.026;5.468;2022-07-29T10:41:59;2.67;;;1.70;;
53666;SDS011;39568;51.026;5.468;2022-07-29T10:44:32;2.17;;;1.38;;
53666;SDS011;39568;51.026;5.468;2022-07-29T10:47:19;1.52;;;1.30;;
53666;SDS011;39568;51.026;5.468;2022-07-29T10:49:56;2.33;;;2.10;;
53666;SDS011;39568;51.026;5.468;2022-07-29T10:55:32;2.42;;;1.40;;
53666;SDS011;39568;51.026;5.468;2022-07-29T10:58:12;1.95;;;1.75;;
53666;SDS011;39568;51.026;5.468;2022-07-29T11:00:40;1.93;;;1.60;;
53666;SDS011;39568;51.026;5.468;2022-07-29T11:03:07;7.97;;;1.35;;
53666;SDS011;39568;51.026;5.468;2022-07-29T11:05:57;2.38;;;1.20;;
53666;SDS011;39568;51.026;5.468;2022-07-29T11:08:24;3.35;;;1.60;;
53666;SDS011;39568;51.026;5.468;2022-07-29T11:10:52;6.07;;;1.90;;
53666;SDS011;39568;51.026;5.468;2022-07-29T11:13:50;1.55;;;1.42;;
53666;SDS011;39568;51.026;5.468;2022-07-29T11:21:48;1.60;;;1.45;;
53666;SDS011;39568;51.026;5.468;2022-07-29T11:24:17;4.65;;;1.70;;
53666;SDS011;39568;51.026;5.468;2022-07-29T11:26:45;5.03;;;1.42;;
53666;SDS011;39568;51.026;5.468;2022-07-29T11:29:33;2.53;;;1.30;;
53666;SDS011;39568;51.026;5.468;2022-07-29T11:32:08;5.45;;;1.70;;
53666;SDS011;39568;51.026;5.468;2022-07-29T11:34:35;1.42;;;1.02;;
53666;SDS011;39568;51.026;5.468;2022-07-29T11:37:15;2.38;;;1.40;;
53666;SDS011;39568;51.026;5.468;2022-07-29T11:42:45;2.35;;;1.27;;
53666;SDS011;39568;51.026;5.468;2022-07-29T11:45:20;5.13;;;1.27;;
53666;SDS011;39568;51.026;5.468;2022-07-29T11:47:50;4.43;;;1.23;;
53666;SDS011;39568;51.026;5.468;2022-07-29T11:52:53;4.93;;;1.42;;
53666;SDS011;39568;51.026;5.468;2022-07-29T11:55:20;2.65;;;1.20;;
53666;SDS011;39568;51.026;5.468;2022-07-29T11:57:50;2.53;;;1.15;;
53666;SDS011;39568;51.026;5.468;2022-07-29T12:00:24;3.33;;;1.97;;
53666;SDS011;39568;51.026;5.468;2022-07-29T12:02:53;1.20;;;1.20;;
53666;SDS011;39568;51.026;5.468;2022-07-29T12:05:32;3.42;;;1.70;;
53666;SDS011;39568;51.026;5.468;2022-07-29T12:08:04;1.95;;;1.20;;
53666;SDS011;39568;51.026;5.468;2022-07-29T12:10:34;2.13;;;0.85;;
53666;SDS011;39568;51.026;5.468;2022-07-29T12:13:01;1.65;;;1.55;;
53666;SDS011;39568;51.026;5.468;2022-07-29T12:15:29;1.02;;;1.02;;
53666;SDS011;39568;51.026;5.468;2022-07-29T12:17:57;4.18;;;1.20;;
53666;SDS011;39568;51.026;5.468;2022-07-29T12:20:35;1.58;;;1.15;;
53666;SDS011;39568;51.026;5.468;2022-07-29T12:23:04;4.82;;;1.15;;
53666;SDS011;39568;51.026;5.468;2022-07-29T12:25:42;2.05;;;1.00;;
53666;SDS011;39568;51.026;5.468;2022-07-29T12:28:10;2.40;;;1.00;;
53666;SDS011;39568;51.026;5.468;2022-07-29T12:30:41;1.23;;;1.13;;
53666;SDS011;39568;51.026;5.468;2022-07-29T12:33:14;2.03;;;1.30;;
53666;SDS011;39568;51.026;5.468;2022-07-29T12:35:45;3.20;;;1.27;;
53666;SDS011;39568;51.026;5.468;2022-07-29T12:38:13;4.63;;;1.10;;
53666;SDS011;39568;51.026;5.468;2022-07-29T12:40:44;2.65;;;1.50;;
53666;SDS011;39568;51.026;5.468;2022-07-29T12:43:13;3.40;;;1.30;;
53666;SDS011;39568;51.026;5.468;2022-07-29T12:45:46;1.63;;;1.00;;
53666;SDS011;39568;51.026;5.468;2022-07-29T12:48:16;2.00;;;1.35;;
53666;SDS011;39568;51.026;5.468;2022-07-29T12:50:53;4.60;;;1.30;;
53666;SDS011;39568;51.026;5.468;2022-07-29T12:53:22;3.30;;;1.08;;
53666;SDS011;39568;51.026;5.468;2022-07-29T12:55:52;0.90;;;0.88;;
53666;SDS011;39568;51.026;5.468;2022-07-29T13:01:00;2.03;;;1.35;;
53666;SDS011;39568;51.026;5.468;2022-07-29T13:03:42;1.27;;;1.17;;
53666;SDS011;39568;51.026;5.468;2022-07-29T13:08:58;7.00;;;1.40;;
53666;SDS011;39568;51.026;5.468;2022-07-29T13:11:28;1.50;;;1.13;;
53666;SDS011;39568;51.026;5.468;2022-07-29T13:13:56;1.90;;;1.48;;
53666;SDS011;39568;51.026;5.468;2022-07-29T13:16:30;4.13;;;1.35;;
53666;SDS011;39568;51.026;5.468;2022-07-29T13:19:09;2.40;;;1.33;;
53666;SDS011;39568;51.026;5.468;2022-07-29T13:21:38;5.18;;;1.40;;
53666;SDS011;39568;51.026;5.468;2022-07-29T13:24:06;1.67;;;1.58;;
53666;SDS011;39568;51.026;5.468;2022-07-29T13:26:33;5.82;;;1.23;;
53666;SDS011;39568;51.026;5.468;2022-07-29T13:29:02;10.45;;;1.30;;
53666;SDS011;39568;51.026;5.468;2022-07-29T13:31:32;1.67;;;1.20;;
53666;SDS011;39568;51.026;5.468;2022-07-29T13:34:00;2.13;;;1.37;;
53666;SDS011;39568;51.026;5.468;2022-07-29T13:36:27;2.85;;;1.10;;
53666;SDS011;39568;51.026;5.468;2022-07-29T13:38:56;5.07;;;1.85;;
53666;SDS011;39568;51.026;5.468;2022-07-29T13:41:22;7.78;;;1.15;;
53666;SDS011;39568;51.026;5.468;2022-07-29T13:43:49;1.42;;;1.33;;
53666;SDS011;39568;51.026;5.468;2022-07-29T13:46:19;3.80;;;1.40;;
53666;SDS011;39568;51.026;5.468;2022-07-29T13:48:47;9.55;;;1.35;;
53666;SDS011;39568;51.026;5.468;2022-07-29T13:51:15;3.08;;;0.85;;
53666;SDS011;39568;51.026;5.468;2022-07-29T13:53:42;4.15;;;1.02;;
53666;SDS011;39568;51.026;5.468;2022-07-29T13:56:08;3.45;;;1.17;;
53666;SDS011;39568;51.026;5.468;2022-07-29T13:58:35;3.80;;;1.45;;
53666;SDS011;39568;51.026;5.468;2022-07-29T14:01:07;1.45;;;1.08;;
53666;SDS011;39568;51.026;5.468;2022-07-29T14:03:37;10.10;;;1.77;;
53666;SDS011;39568;51.026;5.468;2022-07-29T14:06:09;3.80;;;1.05;;
53666;SDS011;39568;51.026;5.468;2022-07-29T14:08:36;1.30;;;1.20;;
53666;SDS011;39568;51.026;5.468;2022-07-29T14:11:03;3.08;;;1.35;;
53666;SDS011;39568;51.026;5.468;2022-07-29T14:13:32;4.22;;;2.03;;
53666;SDS011;39568;51.026;5.468;2022-07-29T14:15:58;5.72;;;1.80;;
53666;SDS011;39568;51.026;5.468;2022-07-29T14:18:25;2.15;;;1.33;;
53666;SDS011;39568;51.026;5.468;2022-07-29T14:20:52;6.47;;;1.60;;
53666;SDS011;39568;51.026;5.468;2022-07-29T14:23:20;3.80;;;1.08;;
53666;SDS011;39568;51.026;5.468;2022-07-29T14:25:46;3.28;;;1.45;;
53666;SDS011;39568;51.026;5.468;2022-07-29T14:28:13;3.05;;;1.23;;
53666;SDS011;39568;51.026;5.468;2022-07-29T14:30:40;1.58;;;0.90;;
53666;SDS011;39568;51.026;5.468;2022-07-29T14:33:07;4.75;;;1.38;;
53666;SDS011;39568;51.026;5.468;2022-07-29T14:35:33;4.13;;;1.13;;
53666;SDS011;39568;51.026;5.468;2022-07-29T14:38:00;2.30;;;1.05;;
53666;SDS011;39568;51.026;5.468;2022-07-29T14:40:28;2.63;;;1.00;;
53666;SDS011;39568;51.026;5.468;2022-07-29T14:42:55;2.65;;;1.23;;
53666;SDS011;39568;51.026;5.468;2022-07-29T14:45:22;2.85;;;1.02;;
53666;SDS011;39568;51.026;5.468;2022-07-29T14:47:49;4.80;;;1.25;;
53666;SDS011;39568;51.026;5.468;2022-07-29T14:50:19;3.92;;;1.20;;
53666;SDS011;39568;51.026;5.468;2022-07-29T14:52:46;3.90;;;0.88;;
53666;SDS011;39568;51.026;5.468;2022-07-29T14:55:18;3.67;;;1.23;;
53666;SDS011;39568;51.026;5.468;2022-07-29T14:57:47;4.97;;;1.00;;
53666;SDS011;39568;51.026;5.468;2022-07-29T15:00:15;4.30;;;1.40;;
53666;SDS011;39568;51.026;5.468;2022-07-29T15:02:42;3.17;;;1.55;;
53666;SDS011;39568;51.026;5.468;2022-07-29T15:05:09;3.72;;;0.80;;
53666;SDS011;39568;51.026;5.468;2022-07-29T15:07:36;7.35;;;1.42;;
53666;SDS011;39568;51.026;5.468;2022-07-29T15:10:03;4.97;;;1.25;;
53666;SDS011;39568;51.026;5.468;2022-07-29T15:12:30;1.73;;;1.20;;
53666;SDS011;39568;51.026;5.468;2022-07-29T15:14:58;3.85;;;1.30;;
53666;SDS011;39568;51.026;5.468;2022-07-29T15:17:25;1.42;;;0.88;;
53666;SDS011;39568;51.026;5.468;2022-07-29T15:19:52;5.85;;;1.23;;
53666;SDS011;39568;51.026;5.468;2022-07-29T15:22:19;4.85;;;1.40;;
53666;SDS011;39568;51.026;5.468;2022-07-29T15:24:46;2.03;;;1.17;;
53666;SDS011;39568;51.026;5.468;2022-07-29T15:27:13;12.38;;;1.20;;
53666;SDS011;39568;51.026;5.468;2022-07-29T15:29:44;6.13;;;1.30;;
53666;SDS011;39568;51.026;5.468;2022-07-29T15:32:12;2.58;;;1.55;;
53666;SDS011;39568;51.026;5.468;2022-07-29T15:34:41;4.00;;;1.52;;
53666;SDS011;39568;51.026;5.468;2022-07-29T15:37:07;1.95;;;1.40;;
53666;SDS011;39568;51.026;5.468;2022-07-29T15:39:35;2.58;;;1.33;;